createdAt,value
2019-04-23T00:02:29.768Z,10.60
2019-04-23T00:05:02.767Z,10.60
2019-04-23T00:10:12.343Z,10.50
2019-04-23T00:12:43.645Z,10.40
2019-04-23T00:15:12.019Z,10.40
2019-04-23T00:17:41.929Z,10.40
2019-04-23T00:23:02.452Z,10.30
2019-04-23T00:30:43.822Z,10.20
2019-04-23T00:33:12.598Z,10.10
2019-04-23T00:35:45.231Z,10.10
2019-04-23T00:38:19.718Z,10.10
2019-04-23T00:40:43.906Z,10.10
2019-04-23T00:43:22.945Z,10.00
2019-04-23T00:48:32.603Z,10.00
2019-04-23T00:50:58.613Z,10.00
2019-04-23T00:53:24.901Z,10.00
2019-04-23T00:55:55.741Z,10.00
2019-04-23T00:58:27.830Z,9.90
2019-04-23T01:01:00.504Z,9.90
2019-04-23T01:03:24.056Z,9.90
2019-04-23T01:06:00.697Z,9.90
2019-04-23T01:08:30.202Z,9.90
2019-04-23T01:13:43.226Z,9.90
2019-04-23T01:16:09.960Z,9.80
2019-04-23T01:20:56.586Z,9.80
2019-04-23T01:23:44.353Z,9.80
2019-04-23T01:26:29.596Z,9.70
2019-04-23T01:29:07.899Z,9.70
2019-04-23T01:31:44.558Z,9.70
2019-04-23T01:34:13.042Z,9.60
2019-04-23T01:36:36.210Z,9.60
2019-04-23T01:39:14.254Z,9.60
2019-04-23T01:41:47.578Z,9.60
2019-04-23T01:44:22.480Z,9.50
2019-04-23T01:46:49.435Z,9.50
2019-04-23T01:49:20.783Z,9.60
2019-04-23T01:51:53.232Z,9.50
2019-04-23T01:54:18.891Z,9.60
2019-04-23T01:56:47.220Z,9.70
2019-04-23T01:59:29.445Z,9.60
2019-04-23T02:01:58.395Z,9.70
2019-04-23T02:04:28.505Z,9.60
2019-04-23T02:06:57.993Z,9.70
2019-04-23T02:09:37.095Z,9.70
2019-04-23T02:12:07.507Z,9.80
2019-04-23T02:14:35.774Z,9.80
2019-04-23T02:17:10.308Z,9.80
2019-04-23T02:19:44.726Z,9.80
2019-04-23T02:22:13.234Z,9.90
2019-04-23T02:24:47.523Z,10.00
2019-04-23T02:27:19.329Z,9.90
2019-04-23T02:30:05.776Z,10.00
2019-04-23T02:32:53.669Z,10.00
2019-04-23T02:35:20.781Z,10.00
2019-04-23T02:37:49.237Z,10.10
2019-04-23T02:40:09.089Z,10.00
2019-04-23T02:45:07.153Z,9.90
2019-04-23T02:48:14.579Z,9.90
2019-04-23T02:50:29.622Z,9.90
2019-04-23T02:52:38.717Z,9.90
2019-04-23T02:55:17.722Z,9.90
2019-04-23T03:00:20.990Z,9.90
2019-04-23T03:02:54.559Z,9.90
2019-04-23T03:05:22.205Z,9.90
2019-04-23T03:07:45.899Z,9.90
2019-04-23T03:13:09.788Z,9.80
2019-04-23T03:15:43.692Z,9.90
2019-04-23T03:18:31.928Z,10.00
2019-04-23T03:21:19.610Z,10.00
2019-04-23T03:39:29.984Z,9.80
2019-04-23T03:41:34.729Z,9.80
2019-04-23T03:43:57.198Z,9.80
2019-04-23T03:46:29.575Z,9.80
2019-04-23T03:49:03.740Z,9.70
2019-04-23T03:51:34.089Z,9.70
2019-04-23T03:54:20.839Z,9.70
2019-04-23T03:56:48.654Z,9.70
2019-04-23T03:59:19.881Z,9.70
2019-04-23T04:02:00.603Z,9.70
2019-04-23T04:11:33.709Z,9.70
2019-04-23T04:16:55.291Z,9.60
2019-04-23T04:19:31.577Z,9.60
2019-04-23T04:21:58.445Z,9.70
2019-04-23T04:26:57.949Z,9.70
2019-04-23T04:29:32.473Z,9.70
2019-04-23T04:32:02.591Z,9.60
2019-04-23T04:34:56.187Z,9.70
2019-04-23T04:37:29.063Z,9.70
2019-04-23T04:39:39.551Z,9.80
2019-04-23T04:42:04.620Z,9.80
2019-04-23T04:47:15.535Z,9.90
2019-04-23T04:54:26.254Z,10.90
2019-04-23T04:59:48.014Z,12.00
2019-04-23T05:02:26.077Z,12.10
2019-04-23T05:04:55.974Z,11.70
2019-04-23T05:07:22.907Z,13.30
2019-04-23T05:15:02.691Z,14.40
2019-04-23T05:17:27.573Z,14.00
2019-04-23T05:19:52.769Z,14.50
2019-04-23T05:22:26.758Z,13.90
2019-04-23T05:24:55.433Z,13.20
2019-04-23T05:27:34.564Z,13.70
2019-04-23T05:30:06.076Z,13.80
2019-04-23T05:32:30.532Z,14.60
2019-04-23T05:35:07.999Z,14.30
2019-04-23T05:37:45.176Z,15.20
2019-04-23T05:40:02.565Z,16.50
2019-04-23T05:42:32.054Z,16.30
2019-04-23T05:45:06.088Z,16.50
2019-04-23T05:47:33.369Z,16.60
2019-04-23T05:52:49.849Z,16.40
2019-04-23T05:55:07.602Z,17.60
2019-04-23T05:57:39.120Z,18.50
2019-04-23T06:00:21.279Z,18.60
2019-04-23T06:02:53.873Z,17.30
2019-04-23T06:05:19.354Z,17.70
2019-04-23T06:07:47.394Z,17.20
2019-04-23T06:10:24.165Z,19.50
2019-04-23T06:12:50.672Z,19.20
2019-04-23T06:15:29.033Z,19.00
2019-04-23T06:18:02.257Z,19.30
2019-04-23T06:20:28.424Z,18.60
2019-04-23T06:23:01.169Z,17.60
2019-04-23T06:28:03.492Z,18.60
2019-04-23T06:30:40.638Z,19.10
2019-04-23T06:33:05.846Z,18.80
2019-04-23T06:35:39.058Z,20.10
2019-04-23T06:40:42.211Z,19.50
2019-04-23T06:45:45.932Z,18.30
2019-04-23T06:48:21.829Z,18.40
2019-04-23T06:53:21.478Z,19.30
2019-04-23T06:55:56.375Z,18.90
2019-04-23T06:58:32.689Z,19.60
2019-04-23T07:03:31.817Z,19.80
2019-04-23T07:06:16.829Z,20.00
2019-04-23T07:16:28.254Z,18.80
2019-04-23T07:18:48.947Z,18.90
2019-04-23T07:21:28.058Z,18.40
2019-04-23T07:24:05.198Z,18.30
2019-04-23T07:28:56.367Z,18.40
2019-04-23T07:31:26.547Z,18.70
2019-04-23T07:34:01.254Z,19.00
2019-04-23T07:36:30.895Z,18.40
2019-04-23T07:39:06.058Z,19.00
2019-04-23T07:47:11.736Z,15.20
2019-04-23T07:49:43.817Z,14.80
2019-04-23T07:52:13.269Z,14.30
2019-04-23T07:54:42.453Z,14.40
2019-04-23T07:57:15.275Z,14.40
2019-04-23T07:59:44.023Z,14.40
2019-04-23T08:02:16.367Z,14.10
2019-04-23T08:04:54.374Z,14.30
2019-04-23T08:07:16.436Z,14.40
2019-04-23T08:09:48.067Z,14.50
2019-04-23T08:12:25.189Z,14.50
2019-04-23T08:14:53.578Z,15.00
2019-04-23T08:17:18.430Z,14.80
2019-04-23T08:19:56.271Z,14.60
2019-04-23T08:22:26.953Z,14.60
2019-04-23T08:27:27.921Z,14.80
2019-04-23T08:30:01.766Z,14.50
2019-04-23T08:32:55.359Z,14.50
2019-04-23T08:37:56.963Z,14.80
2019-04-23T08:40:15.127Z,15.00
2019-04-23T08:45:22.662Z,14.80
2019-04-23T08:48:00.733Z,15.10
2019-04-23T08:50:34.079Z,15.10
2019-04-23T08:53:15.030Z,15.20
2019-04-23T08:58:04.659Z,15.50
2019-04-23T09:00:37.324Z,15.10
2019-04-23T09:03:11.138Z,15.30
2019-04-23T09:05:45.217Z,15.20
2019-04-23T09:08:25.296Z,15.20
2019-04-23T09:10:54.699Z,15.50
2019-04-23T09:13:40.178Z,15.70
2019-04-23T09:15:51.051Z,15.40
2019-04-23T09:18:21.012Z,15.50
2019-04-23T09:20:48.106Z,15.50
2019-04-23T09:23:28.371Z,15.80
2019-04-23T09:25:54.158Z,15.80
2019-04-23T09:28:34.540Z,15.80
2019-04-23T09:31:14.488Z,15.90
2019-04-23T09:33:46.787Z,16.00
2019-04-23T09:36:25.453Z,16.00
2019-04-23T09:39:00.159Z,16.40
2019-04-23T09:41:42.337Z,16.30
2019-04-23T09:47:19.412Z,16.00
2019-04-23T09:49:46.681Z,16.30
2019-04-23T09:52:21.780Z,16.10
2019-04-23T09:54:57.637Z,16.20
2019-04-23T09:57:15.950Z,16.50
2019-04-23T10:00:21.801Z,16.60
2019-04-23T10:02:19.620Z,16.60
2019-04-23T10:04:44.917Z,16.50
2019-04-23T10:07:17.285Z,16.50
2019-04-23T10:09:34.388Z,16.80
2019-04-23T10:12:07.158Z,17.00
2019-04-23T10:14:36.915Z,17.40
2019-04-23T10:17:08.336Z,17.60
2019-04-23T10:19:38.063Z,17.70
2019-04-23T10:22:09.163Z,17.70
2019-04-23T10:24:39.272Z,17.80
2019-04-23T10:27:10.053Z,18.00
2019-04-23T10:29:41.798Z,18.30
2019-04-23T10:32:11.772Z,17.90
2019-04-23T10:34:52.736Z,18.10
2019-04-23T10:37:13.601Z,18.30
2019-04-23T10:39:48.225Z,18.00
2019-04-23T10:42:16.109Z,18.20
2019-04-23T10:44:52.108Z,18.40
2019-04-23T10:48:17.322Z,17.90
2019-04-23T10:58:15.814Z,18.60
2019-04-23T11:03:42.064Z,18.50
2019-04-23T11:08:24.039Z,18.40
2019-04-23T11:10:58.918Z,18.60
2019-04-23T11:13:38.277Z,18.40
2019-04-23T11:16:42.032Z,18.20
2019-04-23T11:18:55.335Z,18.40
2019-04-23T11:23:49.716Z,18.10
2019-04-23T11:26:24.403Z,18.00
2019-04-23T11:28:46.210Z,17.80
2019-04-23T11:31:31.606Z,18.20
2019-04-23T11:41:36.551Z,18.30
2019-04-23T11:44:04.022Z,18.50
2019-04-23T11:49:19.626Z,18.30
2019-04-23T11:51:45.976Z,18.20
2019-04-23T11:59:17.536Z,18.70
2019-04-23T12:07:14.114Z,18.90
2019-04-23T12:09:53.726Z,18.90
2019-04-23T12:12:31.337Z,19.00
2019-04-23T12:15:23.890Z,19.00
2019-04-23T12:17:39.233Z,19.10
2019-04-23T12:22:42.488Z,18.80
2019-04-23T12:25:17.804Z,18.60
2019-04-23T12:27:33.197Z,18.60
2019-04-23T12:35:17.755Z,19.00
2019-04-23T12:37:56.199Z,19.30
2019-04-23T12:40:25.024Z,19.30
2019-04-23T12:50:44.870Z,19.40
2019-04-23T12:53:25.573Z,19.40
2019-04-23T12:58:09.982Z,19.10
2019-04-23T13:03:08.498Z,19.50
2019-04-23T13:05:51.003Z,19.30
2019-04-23T13:10:45.273Z,19.60
2019-04-23T13:13:23.839Z,19.50
2019-04-23T13:15:48.111Z,19.50
2019-04-23T13:18:26.861Z,19.60
2019-04-23T13:20:50.640Z,19.60
2019-04-23T13:28:27.686Z,19.80
2019-04-23T13:31:04.473Z,19.70
2019-04-23T13:43:40.446Z,20.20
2019-04-23T13:48:40.094Z,20.30
2019-04-23T13:54:01.604Z,20.00
2019-04-23T13:56:24.255Z,20.30
2019-04-23T13:58:51.189Z,20.50
2019-04-23T14:01:29.071Z,20.70
2019-04-23T14:04:16.831Z,20.60
2019-04-23T14:09:03.185Z,20.60
2019-04-23T14:11:26.314Z,20.90
2019-04-23T14:14:21.958Z,21.10
2019-04-23T14:16:39.310Z,20.90
2019-04-23T14:21:51.382Z,20.70
2019-04-23T14:24:17.715Z,20.60
2019-04-23T14:26:41.761Z,20.30
2019-04-23T14:29:14.990Z,20.40
2019-04-23T14:31:42.984Z,20.30
2019-04-23T14:36:52.547Z,20.60
2019-04-23T14:39:27.416Z,20.60
2019-04-23T14:41:53.710Z,20.30
2019-04-23T14:44:19.765Z,20.40
2019-04-23T14:46:58.347Z,20.60
2019-04-23T14:49:40.736Z,20.60
2019-04-23T14:52:09.201Z,20.50
2019-04-23T14:55:19.929Z,20.40
2019-04-23T14:59:40.602Z,20.40
2019-04-23T15:02:18.135Z,20.50
2019-04-23T15:04:47.258Z,20.40
2019-04-23T15:07:24.240Z,20.60
2019-04-23T15:09:57.665Z,20.50
2019-04-23T15:12:22.460Z,20.30
2019-04-23T15:15:00.294Z,20.40
2019-04-23T15:17:20.592Z,20.20
2019-04-23T15:19:58.084Z,20.20
2019-04-23T15:22:30.698Z,20.20
2019-04-23T15:25:10.732Z,20.20
2019-04-23T15:28:03.381Z,20.30
2019-04-23T15:29:56.470Z,20.10
2019-04-23T15:32:51.351Z,20.10
2019-04-23T15:35:15.237Z,20.20
2019-04-23T15:40:15.156Z,20.00
2019-04-23T15:42:44.343Z,20.00
2019-04-23T15:47:54.039Z,20.00
2019-04-23T15:52:54.333Z,20.10
2019-04-23T15:55:36.851Z,20.10
2019-04-23T16:00:17.817Z,20.10
2019-04-23T16:02:24.950Z,20.00
2019-04-23T16:04:56.034Z,20.00
2019-04-23T16:07:41.470Z,20.00
2019-04-23T16:10:28.392Z,20.10
2019-04-23T16:13:10.147Z,20.00
2019-04-23T16:15:25.736Z,20.10
2019-04-23T16:18:17.278Z,20.10
2019-04-23T16:20:47.359Z,19.90
2019-04-23T16:23:05.415Z,19.90
2019-04-23T16:25:36.529Z,19.80
2019-04-23T16:28:09.450Z,20.00
2019-04-23T16:30:38.228Z,19.90
2019-04-23T16:33:38.660Z,19.90
2019-04-23T16:38:34.270Z,19.70
2019-04-23T16:40:53.468Z,19.80
2019-04-23T16:46:03.076Z,19.80
2019-04-23T16:51:16.640Z,19.70
2019-04-23T16:56:11.473Z,19.60
2019-04-23T17:01:07.295Z,19.60
2019-04-23T17:03:36.275Z,19.50
2019-04-23T17:06:24.751Z,19.50
2019-04-23T17:08:52.907Z,19.50
2019-04-23T17:11:29.518Z,19.40
2019-04-23T17:13:50.986Z,19.30
2019-04-23T17:21:22.298Z,19.10
2019-04-23T17:24:15.410Z,19.10
2019-04-23T17:26:23.949Z,19.10
2019-04-23T17:28:59.998Z,19.10
2019-04-23T17:36:51.903Z,19.00
2019-04-23T17:39:10.666Z,19.00
2019-04-23T17:42:05.520Z,18.90
2019-04-23T17:44:34.376Z,18.80
2019-04-23T17:47:10.277Z,18.80
2019-04-23T17:49:35.143Z,18.80
2019-04-23T17:52:14.756Z,18.70
2019-04-23T17:54:54.719Z,18.70
2019-04-23T18:00:09.847Z,18.60
2019-04-23T18:05:02.632Z,18.50
2019-04-23T18:07:43.761Z,18.40
2019-04-23T18:12:41.852Z,18.30
2019-04-23T18:15:06.196Z,18.20
2019-04-23T18:17:35.520Z,18.20
2019-04-23T18:20:12.431Z,18.10
2019-04-23T18:23:04.757Z,18.00
2019-04-23T18:25:40.660Z,17.90
2019-04-23T18:28:00.567Z,17.90
2019-04-23T18:30:26.399Z,17.80
2019-04-23T18:35:33.821Z,17.60
2019-04-23T18:38:22.865Z,17.60
2019-04-23T18:41:00.793Z,17.60
2019-04-23T18:43:35.705Z,17.50
2019-04-23T18:45:54.083Z,17.50
2019-04-23T18:56:19.348Z,17.50
2019-04-23T18:58:50.335Z,17.50
2019-04-23T19:01:28.147Z,17.40
2019-04-23T19:03:55.347Z,17.40
2019-04-23T19:06:32.608Z,17.40
2019-04-23T19:09:47.760Z,17.40
2019-04-23T19:12:08.778Z,17.40
2019-04-23T19:14:47.885Z,17.30
2019-04-23T19:24:38.984Z,17.20
2019-04-23T19:29:46.214Z,17.10
2019-04-23T19:32:24.399Z,17.10
2019-04-23T19:34:56.441Z,17.10
2019-04-23T19:37:12.916Z,17.10
2019-04-23T19:42:19.290Z,17.10
2019-04-23T19:44:48.961Z,17.10
2019-04-23T19:47:26.736Z,17.00
2019-04-23T19:49:50.738Z,17.00
2019-04-23T19:52:35.045Z,17.00
2019-04-23T19:57:40.558Z,16.90
2019-04-23T20:00:31.584Z,16.80
2019-04-23T20:02:55.282Z,16.70
2019-04-23T20:04:59.540Z,16.60
2019-04-23T20:10:31.244Z,16.60
2019-04-23T20:12:41.954Z,16.50
2019-04-23T20:15:30.937Z,16.50
2019-04-23T20:20:08.811Z,16.40
2019-04-23T20:22:51.206Z,16.40
2019-04-23T20:30:55.116Z,16.20
2019-04-23T20:35:45.005Z,16.20
2019-04-23T20:40:48.569Z,16.10
2019-04-23T20:43:15.152Z,16.10
2019-04-23T20:48:12.633Z,16.00
2019-04-23T20:50:52.297Z,16.00
2019-04-23T20:53:22.778Z,15.90
2019-04-23T20:56:07.232Z,15.90
2019-04-23T20:58:38.825Z,15.90
2019-04-23T21:01:13.167Z,15.80
2019-04-23T21:03:56.928Z,15.80
2019-04-23T21:11:18.574Z,15.60
2019-04-23T21:16:23.478Z,15.50
2019-04-23T21:18:48.364Z,15.50
2019-04-23T21:21:27.875Z,15.50
2019-04-23T21:23:53.661Z,15.50
2019-04-23T21:26:29.928Z,15.40
2019-04-23T21:29:03.948Z,15.40
2019-04-23T21:31:34.423Z,15.40
2019-04-23T21:34:06.049Z,15.40
2019-04-23T21:36:40.427Z,15.50
2019-04-23T21:39:49.249Z,15.50
2019-04-23T21:42:14.123Z,15.50
2019-04-23T21:44:31.508Z,15.50
2019-04-23T21:47:02.643Z,15.50
2019-04-23T21:49:50.697Z,15.60
2019-04-23T21:52:04.731Z,15.50
2019-04-23T21:54:36.598Z,15.50
2019-04-23T21:57:12.170Z,15.50
2019-04-23T21:59:48.225Z,15.40
2019-04-23T22:02:14.986Z,15.50
2019-04-23T22:04:44.491Z,15.40
2019-04-23T22:07:19.391Z,15.50
2019-04-23T22:12:19.614Z,15.40
2019-04-23T22:17:24.962Z,15.40
2019-04-23T22:20:04.022Z,15.40
2019-04-23T22:22:31.993Z,15.50
2019-04-23T22:24:53.342Z,15.40
2019-04-23T22:27:24.247Z,15.40
2019-04-23T22:30:01.303Z,15.40
2019-04-23T22:32:45.826Z,15.40
2019-04-23T22:35:07.235Z,15.40
2019-04-23T22:37:29.965Z,15.40
2019-04-23T22:43:07.441Z,15.30
2019-04-23T22:45:10.190Z,15.30
2019-04-23T22:47:42.694Z,15.30
2019-04-23T22:50:11.254Z,15.20
2019-04-23T22:52:51.738Z,15.20
2019-04-23T22:57:59.374Z,15.20
2019-04-23T23:00:19.148Z,15.20
2019-04-23T23:03:03.721Z,15.20
2019-04-23T23:05:39.815Z,15.20
2019-04-23T23:08:10.784Z,15.20
2019-04-23T23:10:37.399Z,15.20
2019-04-23T23:13:10.954Z,15.10
2019-04-23T23:15:41.737Z,15.10
2019-04-23T23:18:14.623Z,15.10
2019-04-23T23:20:51.224Z,15.10
2019-04-23T23:23:21.523Z,15.10
2019-04-23T23:31:00.526Z,15.00
2019-04-23T23:33:17.531Z,15.00
2019-04-23T23:35:54.173Z,15.00
2019-04-23T23:38:25.489Z,15.00
2019-04-23T23:41:07.720Z,15.00
2019-04-23T23:43:24.067Z,15.00
2019-04-23T23:46:04.283Z,14.90
2019-04-23T23:48:28.058Z,14.90
2019-04-23T23:51:16.518Z,14.90
2019-04-23T23:53:40.570Z,15.00
2019-04-23T23:58:42.526Z,14.90
